Time;durP1;ratioP1;P1;durP2;ratioP2;P2;SDS_P1;SDS_P2;PMS_P1;PMS_P2;Temp;Humidity;BMP_temperature;BMP_pressure;BME280_temperature;BME280_humidity;BME280_pressure;Samples;Min_cycle;Max_cycle;Signal;HPM_P1;HPM_P2
2021/06/10 00:00:48;;;;;;;8.32;5.78;;;15.90;86.90;;;;;;5020294;28;20343;-88
2021/06/10 00:03:14;;;;;;;5.65;4.90;;;15.80;87.00;;;;;;5038753;28;20068;-88
2021/06/10 00:05:40;;;;;;;5.80;5.25;;;15.80;87.00;;;;;;5035710;28;20025;-88
2021/06/10 00:08:07;;;;;;;8.73;5.22;;;15.80;87.00;;;;;;5019658;28;20037;-87
2021/06/10 00:10:33;;;;;;;6.13;5.10;;;15.80;86.90;;;;;;5020598;28;20121;-88
2021/06/10 00:12:59;;;;;;;13.27;7.13;;;15.70;87.00;;;;;;5049082;28;20029;-88
2021/06/10 00:15:28;;;;;;;8.93;6.70;;;15.70;86.90;;;;;;5028834;28;20454;-88
2021/06/10 00:17:53;;;;;;;9.07;7.00;;;15.70;87.10;;;;;;5016332;28;20112;-87
2021/06/10 00:20:21;;;;;;;20.08;7.70;;;15.70;87.40;;;;;;5019880;28;20441;-87
2021/06/10 00:22:47;;;;;;;35.58;7.40;;;15.60;88.00;;;;;;5036366;28;20017;-88
2021/06/10 00:25:13;;;;;;;62.10;7.88;;;15.60;87.40;;;;;;5031619;28;20079;-88
2021/06/10 00:27:40;;;;;;;35.40;8.43;;;15.60;87.70;;;;;;5016293;28;20022;-87
2021/06/10 00:30:08;;;;;;;22.52;8.00;;;15.50;87.60;;;;;;5017549;28;20065;-88
2021/06/10 00:32:34;;;;;;;20.15;8.95;;;15.40;87.70;;;;;;5034248;28;20118;-87
2021/06/10 00:35:00;;;;;;;10.52;8.57;;;15.40;87.90;;;;;;5015945;28;20102;-87
2021/06/10 00:37:25;;;;;;;15.02;8.77;;;15.40;88.30;;;;;;5016778;28;20124;-88
2021/06/10 00:39:51;;;;;;;12.35;8.70;;;15.40;88.40;;;;;;5016533;28;20037;-87
2021/06/10 00:42:17;;;;;;;12.38;8.65;;;15.40;88.30;;;;;;5034519;28;20057;-87
2021/06/10 00:44:42;;;;;;;9.43;7.63;;;15.40;88.40;;;;;;5014950;28;20401;-88
2021/06/10 00:47:08;;;;;;;8.75;7.80;;;15.40;88.70;;;;;;5033627;28;20056;-87
2021/06/10 00:49:33;;;;;;;10.85;7.43;;;15.40;88.70;;;;;;5039670;28;20097;-87
2021/06/10 00:51:59;;;;;;;8.32;7.03;;;15.30;88.60;;;;;;5015751;28;20122;-87
2021/06/10 00:54:26;;;;;;;8.50;7.60;;;15.30;88.50;;;;;;5037245;28;20383;-88
2021/06/10 00:56:52;;;;;;;8.65;7.47;;;15.20;88.60;;;;;;5015814;28;20037;-87
2021/06/10 00:59:18;;;;;;;8.23;7.43;;;15.20;88.60;;;;;;5016770;28;20029;-87
2021/06/10 01:01:43;;;;;;;12.23;8.38;;;15.20;88.80;;;;;;5015759;28;20498;-88
2021/06/10 01:04:09;;;;;;;8.35;7.07;;;15.20;88.90;;;;;;5027564;28;20078;-87
2021/06/10 01:06:53;;;;;;;10.35;7.30;;;15.20;88.90;;;;;;5025590;28;20091;-87
2021/06/10 01:09:35;;;;;;;10.10;7.30;;;15.20;89.10;;;;;;5034056;28;20493;-87
2021/06/10 01:12:18;;;;;;;9.48;7.57;;;15.10;88.90;;;;;;5016014;28;20034;-87
2021/06/10 01:14:55;;;;;;;8.27;7.43;;;15.10;88.90;;;;;;5032477;28;20160;-87
2021/06/10 01:17:23;;;;;;;9.65;7.85;;;15.10;89.70;;;;;;5015800;28;20029;-88
2021/06/10 01:20:04;;;;;;;10.77;8.50;;;15.10;89.20;;;;;;5028850;28;20040;-88
2021/06/10 01:22:58;;;;;;;10.10;8.18;;;15.10;89.30;;;;;;5021031;28;20032;-87
2021/06/10 01:25:58;;;;;;;10.85;8.63;;;15.10;89.40;;;;;;5029807;28;20026;-87
2021/06/10 01:28:30;;;;;;;9.65;7.88;;;15.10;89.50;;;;;;5016228;28;20025;-87
2021/06/10 01:30:59;;;;;;;8.20;7.28;;;15.10;89.30;;;;;;5016046;28;20120;-88
2021/06/10 01:33:30;;;;;;;14.73;8.20;;;15.10;89.40;;;;;;5019903;28;20024;-88
2021/06/10 01:36:05;;;;;;;12.25;8.07;;;15.20;89.30;;;;;;5014352;28;20401;-87
2021/06/10 01:38:32;;;;;;;11.90;8.45;;;15.10;89.30;;;;;;5032552;28;20106;-87
2021/06/10 01:40:58;;;;;;;12.75;8.57;;;15.10;89.20;;;;;;5015445;28;20486;-88
2021/06/10 01:43:32;;;;;;;17.52;9.32;;;15.00;89.20;;;;;;5033078;28;20188;-87
2021/06/10 01:45:59;;;;;;;15.30;9.55;;;15.00;89.40;;;;;;5018629;28;20083;-87
2021/06/10 01:48:26;;;;;;;17.77;10.15;;;15.00;89.40;;;;;;5015006;28;20377;-88
2021/06/10 01:50:54;;;;;;;16.63;10.82;;;15.00;89.30;;;;;;5029890;28;20069;-87
2021/06/10 01:53:21;;;;;;;25.88;9.88;;;15.00;89.60;;;;;;5040406;28;20037;-88
2021/06/10 01:55:48;;;;;;;15.20;9.35;;;14.90;89.40;;;;;;5020853;28;20017;-87
2021/06/10 01:58:15;;;;;;;18.88;8.85;;;14.90;89.60;;;;;;5032518;28;20155;-88
2021/06/10 02:00:42;;;;;;;12.13;8.68;;;14.90;89.70;;;;;;5015448;28;20448;-88
2021/06/10 02:03:10;;;;;;;20.67;9.77;;;14.90;89.70;;;;;;5015433;28;20017;-88
2021/06/10 02:05:40;;;;;;;18.58;9.52;;;14.90;89.90;;;;;;5013755;28;20072;-88
2021/06/10 02:08:11;;;;;;;15.30;9.50;;;14.90;90.00;;;;;;5014361;28;20029;-88
2021/06/10 02:10:39;;;;;;;16.73;8.90;;;14.90;90.10;;;;;;5014526;28;20029;-88
2021/06/10 02:13:06;;;;;;;18.20;9.38;;;14.90;90.10;;;;;;5014265;28;20401;-87
2021/06/10 02:15:32;;;;;;;12.85;8.77;;;14.90;90.00;;;;;;5014079;28;20030;-87
2021/06/10 02:17:58;;;;;;;18.17;9.93;;;14.80;90.00;;;;;;5014031;28;20077;-87
2021/06/10 02:20:24;;;;;;;17.90;7.82;;;14.80;90.00;;;;;;5033990;28;20020;-88
2021/06/10 02:22:50;;;;;;;8.40;7.22;;;14.80;90.00;;;;;;5034607;28;20051;-88
2021/06/10 02:25:16;;;;;;;19.27;8.10;;;14.70;90.00;;;;;;5020289;28;20040;-87
2021/06/10 02:27:42;;;;;;;13.27;9.23;;;14.70;90.10;;;;;;5013869;28;20017;-88
2021/06/10 02:30:10;;;;;;;14.95;8.50;;;14.70;90.30;;;;;;5014416;28;20059;-87
2021/06/10 02:32:36;;;;;;;13.02;6.47;;;14.70;90.20;;;;;;5031845;28;20049;-88
2021/06/10 02:35:07;;;;;;;10.68;7.43;;;14.70;90.20;;;;;;5030960;28;20040;-88
2021/06/10 02:37:36;;;;;;;10.93;6.63;;;14.60;90.20;;;;;;5013275;28;20401;-87
2021/06/10 02:40:07;;;;;;;8.35;6.70;;;14.60;90.20;;;;;;5014513;28;20029;-88
2021/06/10 02:42:34;;;;;;;8.32;6.72;;;14.60;90.20;;;;;;5013516;28;20486;-87
2021/06/10 02:44:59;;;;;;;7.43;6.18;;;14.60;90.40;;;;;;5013285;28;20025;-87
2021/06/10 02:47:27;;;;;;;15.13;7.82;;;14.60;90.20;;;;;;5017787;28;20120;-87
2021/06/10 02:49:53;;;;;;;10.20;7.20;;;14.60;90.30;;;;;;5014337;28;20033;-88
2021/06/10 02:52:20;;;;;;;9.07;6.63;;;14.50;90.20;;;;;;5029121;28;20533;-88
2021/06/10 02:54:48;;;;;;;8.32;6.22;;;14.50;90.20;;;;;;5015092;28;20025;-87
2021/06/10 02:57:15;;;;;;;6.32;5.20;;;14.50;90.10;;;;;;5033385;28;20030;-88
2021/06/10 02:59:44;;;;;;;6.20;4.90;;;14.40;90.10;;;;;;5015970;28;20528;-88
2021/06/10 03:02:10;;;;;;;8.07;5.10;;;14.40;90.10;;;;;;5016424;28;20022;-88
2021/06/10 03:04:36;;;;;;;7.50;4.85;;;14.30;90.00;;;;;;5015700;28;20489;-88
2021/06/10 03:07:02;;;;;;;5.53;4.88;;;14.30;90.10;;;;;;5033471;28;20026;-88
2021/06/10 03:09:29;;;;;;;6.38;4.78;;;14.30;90.10;;;;;;5040509;28;20075;-88
2021/06/10 03:11:56;;;;;;;8.02;5.00;;;14.30;90.10;;;;;;5026279;28;20030;-88
2021/06/10 03:14:23;;;;;;;9.70;5.05;;;14.30;90.10;;;;;;5014784;28;20038;-87
2021/06/10 03:16:49;;;;;;;5.18;4.68;;;14.30;90.10;;;;;;5033729;28;20029;-88
2021/06/10 03:19:17;;;;;;;5.72;4.53;;;14.30;90.10;;;;;;5016595;28;20444;-87
2021/06/10 03:21:45;;;;;;;8.00;5.45;;;14.30;90.10;;;;;;5025120;28;20326;-88
2021/06/10 03:24:10;;;;;;;11.32;5.68;;;14.30;90.10;;;;;;5051384;28;20029;-88
2021/06/10 03:26:36;;;;;;;14.63;6.45;;;14.30;90.10;;;;;;5016828;28;20036;-87
2021/06/10 03:29:03;;;;;;;14.45;6.95;;;14.30;90.10;;;;;;5016031;28;20021;-88
2021/06/10 03:31:30;;;;;;;17.10;8.00;;;14.40;90.10;;;;;;5015026;28;20033;-88
2021/06/10 03:33:57;;;;;;;15.88;8.20;;;14.40;90.10;;;;;;5014989;28;20104;-88
2021/06/10 03:36:24;;;;;;;17.58;8.50;;;14.40;90.10;;;;;;5015094;28;20033;-87
2021/06/10 03:38:51;;;;;;;18.27;7.97;;;14.40;90.10;;;;;;5015991;28;20044;-88
2021/06/10 03:41:18;;;;;;;19.23;8.48;;;14.40;90.10;;;;;;5015107;28;20532;-88
2021/06/10 03:43:45;;;;;;;18.65;7.65;;;14.40;90.10;;;;;;5021018;28;20053;-88
2021/06/10 03:46:11;;;;;;;13.48;7.38;;;14.30;90.10;;;;;;5026039;28;20083;-87
2021/06/10 03:48:41;;;;;;;13.73;7.05;;;14.30;90.20;;;;;;5035040;28;20017;-88
2021/06/10 03:51:18;;;;;;;11.93;7.57;;;14.30;90.30;;;;;;5029481;28;20088;-88
2021/06/10 03:53:45;;;;;;;11.80;6.97;;;14.30;90.30;;;;;;5029726;28;20022;-88
2021/06/10 03:56:11;;;;;;;30.60;7.05;;;14.30;90.20;;;;;;5018197;28;20057;-88
2021/06/10 03:58:37;;;;;;;17.70;6.45;;;14.40;90.20;;;;;;5018219;28;20500;-88
2021/06/10 04:01:03;;;;;;;23.85;7.10;;;14.30;90.20;;;;;;5018763;28;20029;-87
2021/06/10 04:03:28;;;;;;;17.20;7.70;;;14.30;90.20;;;;;;5036725;28;20026;-87
2021/06/10 04:05:54;;;;;;;40.08;7.32;;;14.30;90.30;;;;;;5017452;28;20033;-88
2021/06/10 04:08:20;;;;;;;10.88;7.25;;;14.30;90.40;;;;;;5018226;28;20021;-88
2021/06/10 04:10:46;;;;;;;21.90;6.55;;;14.30;90.50;;;;;;5017742;28;20025;-87
2021/06/10 04:13:11;;;;;;;32.00;5.90;;;14.20;90.50;;;;;;5017196;28;20034;-87
2021/06/10 04:15:37;;;;;;;34.33;5.40;;;14.20;90.40;;;;;;5015717;28;20348;-88
2021/06/10 04:18:03;;;;;;;34.58;5.63;;;14.10;90.40;;;;;;5016561;28;20029;-88
2021/06/10 04:20:28;;;;;;;39.17;5.57;;;14.10;90.50;;;;;;5018676;28;20074;-88
2021/06/10 04:22:54;;;;;;;41.85;6.13;;;14.10;90.60;;;;;;5031986;28;20029;-88
2021/06/10 04:25:20;;;;;;;38.60;6.28;;;14.00;90.60;;;;;;5035561;28;20036;-87
2021/06/10 04:27:46;;;;;;;42.00;6.28;;;14.00;90.80;;;;;;5016145;28;20017;-88
2021/06/10 04:30:13;;;;;;;49.22;6.47;;;14.00;90.80;;;;;;5016703;28;20555;-87
2021/06/10 04:32:41;;;;;;;20.75;6.88;;;14.00;90.90;;;;;;5015873;28;20124;-88
2021/06/10 04:35:07;;;;;;;25.67;6.82;;;14.00;90.80;;;;;;5015405;28;20040;-87
2021/06/10 04:37:33;;;;;;;43.75;8.07;;;14.00;90.80;;;;;;5015795;28;20048;-87
2021/06/10 04:39:59;;;;;;;10.80;7.68;;;14.00;91.00;;;;;;5016278;28;20025;-88
2021/06/10 04:42:24;;;;;;;23.10;8.10;;;14.00;91.10;;;;;;5018399;28;20022;-87
2021/06/10 04:44:50;;;;;;;19.00;8.15;;;14.00;91.10;;;;;;5020186;28;20030;-88
2021/06/10 04:47:16;;;;;;;10.30;7.95;;;14.10;91.20;;;;;;5052688;28;20025;-88
2021/06/10 04:49:44;;;;;;;23.40;8.32;;;14.10;91.10;;;;;;5046311;28;20486;-87
2021/06/10 04:52:09;;;;;;;17.02;9.15;;;14.10;91.30;;;;;;5033051;28;20029;-88
2021/06/10 04:54:35;;;;;;;25.15;10.10;;;14.20;91.30;;;;;;5015409;28;20084;-87
2021/06/10 04:57:02;;;;;;;23.73;10.30;;;14.20;91.30;;;;;;5016779;28;20091;-87
2021/06/10 04:59:27;;;;;;;19.23;10.98;;;14.20;91.40;;;;;;5034234;28;20025;-88
2021/06/10 05:01:53;;;;;;;14.63;11.32;;;14.30;91.50;;;;;;5001248;28;20379;-88
2021/06/10 05:04:19;;;;;;;221.75;12.52;;;14.30;91.50;;;;;;5016062;28;20459;-88
2021/06/10 05:06:44;;;;;;;91.97;10.85;;;14.40;91.50;;;;;;5016126;28;20021;-87
2021/06/10 05:09:10;;;;;;;101.80;10.25;;;14.40;91.30;;;;;;5015749;28;20109;-87
2021/06/10 05:11:35;;;;;;;56.38;10.32;;;14.30;91.30;;;;;;5017981;28;20025;-88
2021/06/10 05:14:01;;;;;;;67.75;10.75;;;14.30;91.40;;;;;;5019814;28;20069;-87
2021/06/10 05:16:28;;;;;;;47.38;9.77;;;14.30;91.50;;;;;;5018090;28;20021;-88
2021/06/10 05:18:53;;;;;;;44.22;9.85;;;14.40;91.60;;;;;;5016144;28;20025;-88
2021/06/10 05:23:47;;;;;;;20.83;10.77;;;14.50;91.60;;;;;;5044469;28;20536;-70
2021/06/10 05:26:13;;;;;;;32.92;11.07;;;14.60;91.70;;;;;;5046652;28;20029;-70
2021/06/10 05:28:38;;;;;;;39.97;9.30;;;14.60;91.70;;;;;;5046356;28;20017;-70
2021/06/10 05:31:07;;;;;;;21.88;10.15;;;14.70;91.70;;;;;;5048912;28;20101;-70
2021/06/10 05:33:33;;;;;;;29.05;10.10;;;14.80;91.60;;;;;;5072118;28;20021;-70
2021/06/10 05:35:59;;;;;;;25.45;9.55;;;14.80;91.60;;;;;;5066914;28;20025;-70
2021/06/10 05:38:25;;;;;;;12.38;10.40;;;14.80;91.60;;;;;;5051801;28;20029;-70
2021/06/10 05:40:50;;;;;;;10.82;9.25;;;14.90;91.70;;;;;;5051549;28;20041;-70
2021/06/10 05:43:16;;;;;;;17.00;10.40;;;15.00;91.70;;;;;;5052121;28;20534;-70
2021/06/10 05:45:42;;;;;;;23.83;10.27;;;15.10;91.70;;;;;;5050746;28;20790;-70
2021/06/10 05:48:08;;;;;;;13.75;10.63;;;15.20;91.70;;;;;;5051361;28;20075;-70
2021/06/10 05:50:33;;;;;;;11.85;9.55;;;15.20;91.70;;;;;;5051340;28;20048;-70
2021/06/10 05:52:59;;;;;;;19.95;13.90;;;15.30;91.80;;;;;;5067686;28;20469;-70
2021/06/10 05:55:24;;;;;;;15.88;11.63;;;15.50;91.90;;;;;;5051900;28;20036;-70
2021/06/10 05:57:50;;;;;;;19.38;14.25;;;15.60;91.90;;;;;;5051288;28;20207;-70
2021/06/10 06:00:17;;;;;;;19.90;14.73;;;15.80;91.90;;;;;;5051371;28;20402;-70
2021/06/10 06:02:43;;;;;;;19.85;14.98;;;16.00;91.90;;;;;;5051452;28;20021;-70
2021/06/10 06:05:09;;;;;;;23.83;15.50;;;16.10;91.90;;;;;;5047966;28;20017;-70
2021/06/10 06:07:35;;;;;;;26.08;17.88;;;16.30;91.80;;;;;;5031493;28;20030;-70
2021/06/10 06:10:02;;;;;;;23.88;16.23;;;16.40;91.70;;;;;;5040180;28;20028;-70
2021/06/10 06:12:28;;;;;;;21.55;15.20;;;16.50;91.70;;;;;;5050605;28;20107;-70
2021/06/10 06:14:54;;;;;;;26.48;17.08;;;16.70;91.70;;;;;;5050091;28;20484;-70
2021/06/10 06:17:19;;;;;;;26.30;17.63;;;16.80;91.50;;;;;;5051075;28;20398;-70
2021/06/10 06:19:45;;;;;;;27.52;17.80;;;16.90;91.50;;;;;;5050389;28;20048;-70
2021/06/10 06:22:12;;;;;;;26.23;17.38;;;16.90;91.40;;;;;;5050539;28;20362;-70
2021/06/10 06:24:37;;;;;;;24.83;16.75;;;17.00;91.40;;;;;;5050027;28;20377;-70
2021/06/10 06:27:03;;;;;;;22.33;17.30;;;17.20;91.50;;;;;;5050535;28;20071;-70
2021/06/10 06:29:29;;;;;;;25.27;17.40;;;17.30;91.30;;;;;;5050750;28;20025;-70
2021/06/10 06:31:55;;;;;;;27.80;18.65;;;17.50;91.30;;;;;;5050412;28;20525;-70
2021/06/10 06:34:21;;;;;;;23.35;18.15;;;17.60;91.20;;;;;;5049794;28;20441;-70
2021/06/10 06:36:46;;;;;;;24.45;17.08;;;17.70;91.00;;;;;;5050451;28;20032;-70
2021/06/10 06:39:13;;;;;;;23.02;17.05;;;17.80;91.10;;;;;;5032643;28;20025;-70
2021/06/10 06:41:39;;;;;;;19.83;15.88;;;17.90;90.80;;;;;;5050157;28;20028;-70
2021/06/10 06:44:05;;;;;;;18.65;14.90;;;18.00;90.60;;;;;;5049216;28;20385;-70
2021/06/10 06:46:31;;;;;;;21.40;15.95;;;18.10;90.60;;;;;;5050651;28;20100;-70
2021/06/10 06:48:56;;;;;;;19.95;15.82;;;18.30;90.60;;;;;;5047825;28;20055;-70
2021/06/10 06:51:22;;;;;;;20.55;16.60;;;18.40;90.40;;;;;;5050368;28;20077;-70
2021/06/10 06:53:49;;;;;;;19.92;15.65;;;18.50;90.40;;;;;;5064534;28;20147;-70
2021/06/10 06:56:15;;;;;;;22.02;15.25;;;18.70;90.40;;;;;;5048719;28;20107;-70
2021/06/10 06:58:41;;;;;;;18.73;14.57;;;18.80;90.00;;;;;;5047192;28;20805;-70
2021/06/10 07:01:06;;;;;;;16.55;13.60;;;19.00;90.00;;;;;;5043706;28;20033;-70
2021/06/10 07:03:32;;;;;;;17.95;14.73;;;19.10;90.10;;;;;;5049817;28;20029;-70
2021/06/10 07:05:57;;;;;;;21.45;14.93;;;19.40;90.00;;;;;;5049511;28;20056;-70
2021/06/10 07:08:23;;;;;;;18.23;13.90;;;19.50;89.30;;;;;;5049650;28;20031;-70
2021/06/10 07:10:55;;;;;;;17.35;12.80;;;19.80;89.50;;;;;;5043317;28;20033;-70
2021/06/10 07:13:22;;;;;;;17.48;13.15;;;20.10;89.40;;;;;;5046248;28;20074;-70
2021/06/10 07:15:48;;;;;;;15.60;13.60;;;20.30;88.50;;;;;;5049094;28;20171;-70
2021/06/10 07:18:13;;;;;;;16.88;13.00;;;20.50;87.70;;;;;;5050265;28;20516;-71
2021/06/10 07:20:39;;;;;;;16.77;13.02;;;20.70;87.10;;;;;;5049981;28;20029;-71
2021/06/10 07:23:05;;;;;;;15.70;12.45;;;20.80;87.30;;;;;;5031545;28;20033;-70
2021/06/10 07:25:30;;;;;;;16.73;11.52;;;21.00;86.50;;;;;;5042769;28;20037;-70
2021/06/10 07:27:56;;;;;;;14.93;12.65;;;21.20;86.50;;;;;;5046034;28;20103;-70
2021/06/10 07:30:22;;;;;;;15.45;11.73;;;21.40;85.70;;;;;;5053778;28;20465;-76
2021/06/10 07:32:48;;;;;;;13.85;11.25;;;21.60;84.40;;;;;;5049342;28;20033;-76
2021/06/10 07:35:21;;;;;;;14.35;11.73;;;21.70;83.90;;;;;;5034737;28;20040;-76
2021/06/10 07:37:47;;;;;;;;;;;21.70;83.50;;;;;;5054080;28;20044;-76
2021/06/10 07:40:13;;;;;;;15.25;11.40;;;21.80;83.90;;;;;;5035505;28;20303;-75
2021/06/10 07:42:38;;;;;;;14.15;11.30;;;22.10;83.80;;;;;;5053163;28;20083;-75
2021/06/10 07:45:05;;;;;;;12.73;10.63;;;22.60;83.40;;;;;;5052464;28;20025;-75
2021/06/10 07:47:30;;;;;;;13.23;10.45;;;23.00;82.60;;;;;;5053223;28;20021;-74
2021/06/10 07:49:56;;;;;;;11.55;10.18;;;23.50;81.50;;;;;;5053197;28;20086;-76
2021/06/10 07:52:21;;;;;;;12.38;10.05;;;23.80;80.50;;;;;;5063184;28;20033;-75
2021/06/10 07:54:47;;;;;;;11.82;10.15;;;24.00;79.60;;;;;;5036625;28;20026;-75
2021/06/10 07:57:14;;;;;;;12.48;10.75;;;24.20;79.20;;;;;;5045562;28;20052;-74
2021/06/10 07:59:39;;;;;;;13.10;11.50;;;24.20;78.60;;;;;;5035223;28;20033;-74
2021/06/10 08:02:08;;;;;;;16.38;12.13;;;24.40;77.60;;;;;;5055899;28;20032;-75
2021/06/10 08:04:33;;;;;;;19.73;16.00;;;24.60;76.90;;;;;;5052030;28;20052;-74
2021/06/10 08:06:59;;;;;;;12.27;10.98;;;24.80;76.30;;;;;;5052145;28;20049;-74
2021/06/10 08:09:24;;;;;;;13.05;11.07;;;25.20;75.60;;;;;;5051900;28;20040;-77
2021/06/10 08:11:50;;;;;;;12.52;11.10;;;25.60;74.70;;;;;;5052384;28;20116;-73
2021/06/10 08:14:16;;;;;;;13.48;11.30;;;25.80;74.20;;;;;;5033799;28;20033;-73
2021/06/10 08:16:41;;;;;;;13.02;11.65;;;26.10;72.90;;;;;;5034392;28;20033;-72
2021/06/10 08:19:07;;;;;;;13.00;10.95;;;26.40;71.80;;;;;;5046772;28;20112;-70
2021/06/10 08:21:33;;;;;;;11.63;10.43;;;26.70;71.30;;;;;;5052689;28;20033;-73
2021/06/10 08:23:58;;;;;;;13.32;11.93;;;26.90;69.80;;;;;;5048531;28;20048;-73
2021/06/10 08:26:24;;;;;;;17.42;11.85;;;26.70;68.70;;;;;;5034473;28;20020;-73
2021/06/10 08:28:50;;;;;;;13.18;10.98;;;26.50;68.60;;;;;;5050506;28;20477;-73
2021/06/10 08:31:16;;;;;;;11.90;10.30;;;26.40;69.80;;;;;;5052220;28;20056;-71
2021/06/10 08:33:42;;;;;;;12.90;10.32;;;26.50;69.80;;;;;;5034504;28;20036;-71
2021/06/10 08:36:08;;;;;;;15.57;10.40;;;26.90;69.30;;;;;;5050397;28;20039;-73
2021/06/10 08:38:35;;;;;;;11.48;10.27;;;27.50;68.60;;;;;;5053336;28;20021;-74
2021/06/10 08:41:01;;;;;;;10.48;9.38;;;28.10;67.70;;;;;;5052594;28;20378;-74
2021/06/10 08:43:27;;;;;;;11.05;9.85;;;28.70;66.50;;;;;;5052767;28;20040;-74
2021/06/10 08:46:08;;;;;;;10.25;9.10;;;29.20;64.90;;;;;;5050851;28;20025;-74
2021/06/10 08:48:40;;;;;;;11.40;10.18;;;29.70;63.80;;;;;;5043892;28;20030;-71
2021/06/10 08:51:07;;;;;;;10.90;9.80;;;29.90;62.20;;;;;;5044037;28;20094;-71
2021/06/10 08:53:33;;;;;;;10.40;9.40;;;30.00;61.80;;;;;;5052073;28;20107;-70
2021/06/10 08:55:59;;;;;;;11.65;9.43;;;30.40;61.20;;;;;;5051392;28;20031;-71
2021/06/10 08:58:26;;;;;;;11.73;9.77;;;30.80;60.60;;;;;;5052728;28;20116;-71
2021/06/10 09:00:54;;;;;;;12.77;9.60;;;31.10;59.50;;;;;;5052542;28;20083;-71
2021/06/10 09:03:31;;;;;;;10.73;9.27;;;31.30;58.80;;;;;;5052374;28;20497;-71
2021/06/10 09:06:00;;;;;;;10.82;9.07;;;31.70;58.20;;;;;;5052444;28;20025;-71
2021/06/10 09:08:26;;;;;;;11.45;9.63;;;32.10;57.30;;;;;;5048314;28;20092;-71
2021/06/10 09:11:06;;;;;;;11.88;10.13;;;32.40;56.50;;;;;;5052441;28;20111;-71
2021/06/10 09:13:41;;;;;;;11.18;10.07;;;32.80;55.70;;;;;;5052741;28;20077;-71
2021/06/10 09:16:16;;;;;;;17.83;10.73;;;33.00;55.30;;;;;;5051557;28;20025;-71
2021/06/10 09:18:58;;;;;;;10.55;8.98;;;33.10;54.70;;;;;;5052208;28;20029;-71
2021/06/10 09:21:28;;;;;;;9.82;8.82;;;33.40;54.20;;;;;;5033980;28;20075;-71
2021/06/10 09:23:55;;;;;;;9.77;8.38;;;33.80;53.40;;;;;;5050891;28;20086;-71
2021/06/10 09:26:22;;;;;;;8.50;7.70;;;34.20;53.40;;;;;;5051994;28;20024;-71
2021/06/10 09:28:51;;;;;;;11.27;10.00;;;34.50;52.70;;;;;;5045169;28;20033;-71
2021/06/10 09:31:30;;;;;;;9.52;8.52;;;34.70;51.70;;;;;;5050097;28;20649;-71
2021/06/10 09:33:56;;;;;;;9.98;8.95;;;34.60;51.80;;;;;;5051088;28;20048;-71
2021/06/10 09:36:24;;;;;;;9.75;8.75;;;34.70;51.60;;;;;;5052042;28;20061;-71
2021/06/10 09:39:13;;;;;;;9.65;8.65;;;34.90;51.10;;;;;;5051991;28;20120;-71
2021/06/10 09:41:59;;;;;;;8.73;7.82;;;35.20;50.50;;;;;;5051877;28;20120;-71
2021/06/10 09:44:44;;;;;;;8.85;7.95;;;35.50;50.40;;;;;;5050387;28;20431;-71
2021/06/10 09:47:10;;;;;;;9.07;7.80;;;35.60;50.00;;;;;;5051616;28;20021;-71
2021/06/10 09:49:36;;;;;;;8.00;7.28;;;35.60;49.30;;;;;;5033545;28;20112;-71
2021/06/10 09:52:02;;;;;;;9.25;8.27;;;35.50;49.50;;;;;;5049542;28;20111;-75
2021/06/10 09:54:52;;;;;;;8.38;6.93;;;35.30;48.40;;;;;;5044969;28;20034;-75
2021/06/10 09:57:18;;;;;;;10.35;9.32;;;34.60;49.90;;;;;;5049548;28;20024;-74
2021/06/10 09:59:55;;;;;;;10.07;8.23;;;34.40;50.70;;;;;;5051700;28;20480;-74
2021/06/10 10:02:26;;;;;;;49.83;43.30;;;33.20;51.50;;;;;;5051661;28;20025;-75
2021/06/10 10:05:07;;;;;;;10.20;9.00;;;32.90;52.40;;;;;;5032930;28;20766;-75
2021/06/10 10:07:35;;;;;;;8.10;7.30;;;32.10;53.30;;;;;;5048693;28;20543;-75
2021/06/10 10:10:04;;;;;;;7.13;6.32;;;31.30;53.90;;;;;;5050581;28;20112;-75
2021/06/10 10:12:30;;;;;;;5.53;5.03;;;30.50;54.60;;;;;;5051007;28;20025;-75
2021/06/10 10:14:57;;;;;;;4.82;4.30;;;29.70;54.20;;;;;;5049955;28;20025;-74
2021/06/10 10:17:24;;;;;;;6.22;3.60;;;28.60;53.60;;;;;;5050808;28;20103;-77
2021/06/10 10:19:50;;;;;;;7.07;3.22;;;27.40;53.80;;;;;;5051008;28;20032;-73
2021/06/10 10:22:16;;;;;;;4.57;2.50;;;26.50;54.80;;;;;;5050460;28;20037;-73
2021/06/10 10:24:42;;;;;;;5.68;2.35;;;25.80;55.30;;;;;;5049892;28;20032;-73
2021/06/10 10:27:10;;;;;;;2.60;2.40;;;25.30;56.20;;;;;;5050596;28;20024;-75
2021/06/10 10:29:38;;;;;;;2.85;2.65;;;25.00;56.40;;;;;;5051166;28;20029;-74
2021/06/10 10:32:07;;;;;;;6.47;3.17;;;25.00;58.40;;;;;;5050572;28;20024;-74
2021/06/10 10:34:34;;;;;;;6.32;4.78;;;25.10;57.80;;;;;;5050291;28;20469;-74
2021/06/10 10:37:20;;;;;;;4.60;4.20;;;25.00;58.00;;;;;;5032962;28;20036;-74
2021/06/10 10:39:46;;;;;;;3.80;3.50;;;24.90;58.30;;;;;;5048930;28;20021;-76
2021/06/10 10:42:26;;;;;;;4.15;3.75;;;25.00;60.00;;;;;;5031040;28;20017;-75
2021/06/10 10:45:14;;;;;;;3.42;3.17;;;25.20;59.10;;;;;;5032170;28;20074;-76
2021/06/10 10:47:47;;;;;;;5.93;3.72;;;25.40;58.90;;;;;;5050623;28;20045;-74
2021/06/10 10:50:19;;;;;;;5.13;4.25;;;25.40;59.20;;;;;;5043602;28;20053;-73
2021/06/10 10:52:54;;;;;;;4.80;4.10;;;25.60;59.50;;;;;;5050328;28;20465;-73
2021/06/10 10:55:28;;;;;;;4.15;3.83;;;25.90;58.70;;;;;;5049692;28;20025;-73
2021/06/10 10:57:59;;;;;;;4.95;3.63;;;26.10;58.90;;;;;;5014439;28;20029;-73
2021/06/10 11:00:45;;;;;;;3.90;3.50;;;26.30;58.60;;;;;;5030444;28;20448;-75
2021/06/10 11:03:32;;;;;;;5.88;2.67;;;26.30;57.90;;;;;;5019998;28;20024;-74
2021/06/10 11:06:20;;;;;;;4.10;2.95;;;26.20;57.50;;;;;;5040051;28;20098;-76
2021/06/10 11:09:00;;;;;;;2.97;2.70;;;26.00;57.70;;;;;;5030962;28;20021;-74
2021/06/10 11:11:58;;;;;;;3.10;2.42;;;25.90;57.50;;;;;;5049842;28;20025;-74
2021/06/10 11:14:53;;;;;;;3.33;2.47;;;25.90;58.10;;;;;;5049827;28;20021;-74
2021/06/10 11:17:24;;;;;;;4.72;3.72;;;26.10;57.20;;;;;;5032268;28;20029;-74
2021/06/10 11:19:55;;;;;;;6.03;4.85;;;26.30;57.00;;;;;;5050242;28;20544;-74
2021/06/10 11:22:33;;;;;;;6.70;6.07;;;26.30;57.90;;;;;;5049828;28;20033;-74
2021/06/10 11:25:00;;;;;;;7.82;5.90;;;26.40;58.30;;;;;;5049436;28;20108;-74
2021/06/10 11:28:06;;;;;;;6.45;5.85;;;26.50;58.70;;;;;;5050209;28;20088;-74
2021/06/10 11:30:31;;;;;;;6.28;5.75;;;26.70;59.20;;;;;;5041875;28;20029;-74
2021/06/10 11:33:00;;;;;;;6.47;5.88;;;26.90;58.70;;;;;;5050181;28;20078;-73
2021/06/10 11:35:37;;;;;;;6.40;5.80;;;26.90;58.50;;;;;;5049388;28;20025;-74
2021/06/10 11:38:14;;;;;;;6.20;5.60;;;27.00;58.80;;;;;;5049926;28;20033;-74
2021/06/10 11:40:45;;;;;;;6.22;5.25;;;27.20;58.20;;;;;;5050080;28;20063;-75
2021/06/10 11:43:12;;;;;;;5.95;5.35;;;27.30;58.30;;;;;;5050222;28;20154;-74
2021/06/10 11:45:39;;;;;;;7.15;6.22;;;27.40;58.20;;;;;;5031194;28;20133;-74
2021/06/10 11:48:05;;;;;;;6.70;6.05;;;27.60;58.00;;;;;;5049800;28;20029;-74
2021/06/10 11:50:40;;;;;;;6.85;5.43;;;27.60;57.30;;;;;;5041989;28;20057;-75
2021/06/10 11:53:17;;;;;;;6.20;5.60;;;27.60;57.50;;;;;;5036264;28;20036;-73
2021/06/10 11:55:44;;;;;;;5.97;5.38;;;27.60;57.00;;;;;;5048984;28;20051;-74
2021/06/10 11:58:12;;;;;;;5.80;5.30;;;27.70;56.90;;;;;;5049959;28;20103;-76
2021/06/10 12:00:43;;;;;;;5.45;4.95;;;27.70;56.80;;;;;;5032051;28;20028;-73
2021/06/10 12:03:11;;;;;;;5.40;4.90;;;27.90;57.30;;;;;;5050335;28;20053;-74
2021/06/10 12:05:57;;;;;;;5.78;5.28;;;28.00;57.70;;;;;;5049193;28;20031;-74
2021/06/10 12:08:25;;;;;;;5.90;5.40;;;28.00;57.50;;;;;;5049542;28;20515;-73
2021/06/10 12:11:10;;;;;;;8.70;5.95;;;27.90;57.70;;;;;;5050462;28;20033;-75
2021/06/10 12:13:41;;;;;;;6.05;5.45;;;27.80;57.40;;;;;;5053792;28;20535;-74
2021/06/10 12:16:08;;;;;;;6.63;5.90;;;27.70;57.80;;;;;;5052578;28;20032;-78
2021/06/10 12:18:36;;;;;;;5.85;5.35;;;27.50;57.50;;;;;;5035568;28;20108;-73
2021/06/10 12:21:07;;;;;;;6.55;5.45;;;27.30;58.30;;;;;;5061169;28;20042;-73
2021/06/10 12:23:35;;;;;;;7.07;6.45;;;27.30;58.90;;;;;;5046194;28;20021;-74
2021/06/10 12:26:03;;;;;;;6.35;5.75;;;27.30;58.90;;;;;;5052470;28;20021;-73
2021/06/10 12:28:33;;;;;;;8.13;6.65;;;27.40;59.10;;;;;;5053108;28;20108;-76
2021/06/10 12:31:01;;;;;;;6.97;6.38;;;27.30;58.80;;;;;;5053316;28;20039;-76
2021/06/10 12:33:27;;;;;;;7.25;6.53;;;27.20;58.70;;;;;;5053370;28;20107;-74
2021/06/10 12:35:56;;;;;;;6.28;5.68;;;27.00;59.10;;;;;;5052473;28;20063;-73
2021/06/10 12:38:35;;;;;;;8.25;6.20;;;26.90;59.30;;;;;;5052324;28;20224;-74
2021/06/10 12:41:11;;;;;;;8.32;6.78;;;26.70;59.20;;;;;;5079182;22;20048;-69
2021/06/10 12:43:37;;;;;;;10.43;6.88;;;26.40;59.60;;;;;;5087454;28;21820;-69
2021/06/10 12:46:05;;;;;;;8.43;6.30;;;26.10;59.90;;;;;;5080270;28;20020;-70
2021/06/10 12:48:32;;;;;;;6.03;5.43;;;25.90;60.80;;;;;;5089445;28;20411;-69